createdAt,value
2023-03-26T00:00:08.928Z,945.6
2023-03-26T00:01:10.746Z,945.6
2023-03-26T00:02:13.211Z,945.6
2023-03-26T00:03:15.399Z,945.6
2023-03-26T00:04:17.293Z,945.5
2023-03-26T00:05:19.219Z,945.6
2023-03-26T00:06:21.250Z,945.5
2023-03-26T00:07:23.096Z,945.5
2023-03-26T00:08:24.949Z,945.5
2023-03-26T00:09:26.843Z,945.5
2023-03-26T00:10:28.664Z,945.5
2023-03-26T00:11:30.500Z,945.6
2023-03-26T00:12:32.297Z,945.6
2023-03-26T00:13:34.094Z,945.6
2023-03-26T00:14:36.049Z,945.6
2023-03-26T00:15:37.796Z,945.7
2023-03-26T00:16:39.815Z,945.6
2023-03-26T00:17:42.068Z,945.6
2023-03-26T00:18:44.281Z,945.6
2023-03-26T00:19:46.332Z,945.6
2023-03-26T00:20:48.181Z,945.6
2023-03-26T00:21:50.134Z,945.6
2023-03-26T00:22:51.979Z,945.5
2023-03-26T00:23:53.840Z,945.5
2023-03-26T00:24:55.788Z,945.5
2023-03-26T00:25:57.642Z,945.5
2023-03-26T00:26:59.480Z,945.4
2023-03-26T00:28:01.435Z,945.3
2023-03-26T00:29:03.469Z,945.4
2023-03-26T00:30:05.757Z,945.3
2023-03-26T00:31:07.782Z,945.3
2023-03-26T00:32:09.660Z,945.3
2023-03-26T00:33:11.946Z,945.2
2023-03-26T00:34:13.868Z,945.2
2023-03-26T00:35:15.588Z,945.2
2023-03-26T00:36:17.380Z,945.2
2023-03-26T00:37:19.322Z,945.2
2023-03-26T00:38:21.273Z,945.2
2023-03-26T00:39:23.122Z,945.2
2023-03-26T00:40:25.080Z,945.1
2023-03-26T00:41:27.326Z,945.2
2023-03-26T00:42:29.188Z,945.2
2023-03-26T00:43:31.042Z,945.1
2023-03-26T00:44:32.896Z,945.1
2023-03-26T00:45:34.835Z,945.1
2023-03-26T00:46:36.924Z,945.1
2023-03-26T00:47:39.061Z,945.1
2023-03-26T00:48:46.464Z,945.1
2023-03-26T00:49:48.182Z,945.1
2023-03-26T00:50:50.039Z,945.1
2023-03-26T00:51:51.877Z,945.1
2023-03-26T00:52:53.728Z,945
2023-03-26T00:53:55.584Z,945.1
2023-03-26T00:54:57.527Z,945.1
2023-03-26T00:55:59.286Z,945.1
2023-03-26T00:57:01.161Z,945
2023-03-26T00:58:03.191Z,945.1
2023-03-26T00:59:05.134Z,945
2023-03-26T01:00:07.048Z,945.1
2023-03-26T01:01:09.196Z,945
2023-03-26T01:02:11.339Z,945
2023-03-26T01:03:28.639Z,945
2023-03-26T01:04:32.720Z,945
2023-03-26T01:05:34.992Z,945
2023-03-26T01:06:37.347Z,945
2023-03-26T01:07:39.184Z,945
2023-03-26T01:08:41.031Z,945
2023-03-26T01:09:42.690Z,945
2023-03-26T01:10:44.850Z,945
2023-03-26T01:11:46.792Z,945
2023-03-26T01:12:48.639Z,945
2023-03-26T01:13:50.501Z,945
2023-03-26T01:14:52.567Z,945
2023-03-26T01:15:55.036Z,945
2023-03-26T01:16:57.180Z,945
2023-03-26T01:17:59.277Z,945.1
2023-03-26T01:19:01.376Z,945.1
2023-03-26T01:20:03.380Z,945.1
2023-03-26T01:21:05.422Z,945.1
2023-03-26T01:22:07.437Z,945.2
2023-03-26T01:23:09.296Z,945.1
2023-03-26T01:24:11.135Z,945.1
2023-03-26T01:25:13.000Z,945.2
2023-03-26T01:26:14.845Z,945.2
2023-03-26T01:27:16.796Z,945.2
2023-03-26T01:28:18.655Z,945.2
2023-03-26T01:29:20.397Z,945.2
2023-03-26T01:30:22.325Z,945.2
2023-03-26T01:31:24.204Z,945.2
2023-03-26T01:32:26.435Z,945.2
2023-03-26T01:33:28.972Z,945.2
2023-03-26T01:34:30.960Z,945.2
2023-03-26T01:35:33.078Z,945.2
2023-03-26T01:36:35.090Z,945.2
2023-03-26T01:37:36.938Z,945.3
2023-03-26T01:38:38.783Z,945.3
2023-03-26T01:39:40.644Z,945.3
2023-03-26T01:40:42.624Z,945.2
2023-03-26T01:41:44.940Z,945.3
2023-03-26T01:42:46.791Z,945.3
2023-03-26T01:43:48.743Z,945.3
2023-03-26T01:44:50.708Z,945.2
2023-03-26T01:45:53.380Z,945.3
2023-03-26T01:46:55.752Z,945.3
2023-03-26T01:47:57.842Z,945.3
2023-03-26T01:48:59.942Z,945.3
2023-03-26T01:50:01.802Z,945.3
2023-03-26T01:51:03.766Z,945.4
2023-03-26T01:52:05.606Z,945.4
2023-03-26T01:53:07.561Z,945.5
2023-03-26T01:54:09.399Z,945.5
2023-03-26T01:55:11.252Z,945.5
2023-03-26T01:56:13.212Z,945.5
2023-03-26T01:57:15.214Z,945.5
2023-03-26T01:58:17.119Z,945.5
2023-03-26T01:59:18.962Z,945.5
2023-03-26T02:00:20.846Z,945.5
2023-03-26T02:01:22.890Z,945.6
2023-03-26T02:02:25.392Z,945.5
2023-03-26T02:03:27.607Z,945.5
2023-03-26T02:04:29.647Z,945.5
2023-03-26T02:05:31.495Z,945.5
2023-03-26T02:06:33.594Z,945.5
2023-03-26T02:07:35.419Z,945.5
2023-03-26T02:08:37.369Z,945.5
2023-03-26T02:09:39.301Z,945.5
2023-03-26T02:10:41.154Z,945.5
2023-03-26T02:11:43.099Z,945.5
2023-03-26T02:12:44.962Z,945.6
2023-03-26T02:13:46.807Z,945.5
2023-03-26T02:14:48.761Z,945.6
2023-03-26T02:15:50.723Z,945.6
2023-03-26T02:16:52.569Z,945.6
2023-03-26T02:17:54.851Z,945.6
2023-03-26T02:18:56.870Z,945.6
2023-03-26T02:19:58.837Z,945.7
2023-03-26T02:21:00.682Z,945.6
2023-03-26T02:22:02.544Z,945.6
2023-03-26T02:23:04.386Z,945.6
2023-03-26T02:24:06.147Z,945.6
2023-03-26T02:25:08.054Z,945.6
2023-03-26T02:26:09.934Z,945.6
2023-03-26T02:27:11.767Z,945.6
2023-03-26T02:28:13.639Z,945.5
2023-03-26T02:29:15.579Z,945.5
2023-03-26T02:30:17.419Z,945.4
2023-03-26T02:31:19.319Z,945.4
2023-03-26T02:32:21.220Z,945.5
2023-03-26T02:33:23.191Z,945.4
2023-03-26T02:34:25.039Z,945.4
2023-03-26T02:35:27.253Z,945.5
2023-03-26T02:36:29.538Z,945.5
2023-03-26T02:37:31.734Z,945.4
2023-03-26T02:38:33.794Z,945.4
2023-03-26T02:39:35.817Z,945.5
2023-03-26T02:40:37.659Z,945.4
2023-03-26T02:41:39.559Z,945.4
2023-03-26T02:42:41.475Z,945.4
2023-03-26T02:43:43.331Z,945.5
2023-03-26T02:44:45.285Z,945.5
2023-03-26T02:45:47.274Z,945.5
2023-03-26T02:46:49.384Z,945.5
2023-03-26T02:47:51.245Z,945.5
2023-03-26T02:48:53.180Z,945.5
2023-03-26T02:49:55.053Z,945.5
2023-03-26T02:50:56.859Z,945.5
2023-03-26T02:51:58.740Z,945.5
2023-03-26T02:53:00.605Z,945.5
2023-03-26T02:54:02.432Z,945.5
2023-03-26T02:55:04.380Z,945.5
2023-03-26T02:56:06.249Z,945.6
2023-03-26T02:57:08.218Z,945.5
2023-03-26T02:58:10.240Z,945.6
2023-03-26T02:59:12.204Z,945.6
2023-03-26T03:00:14.068Z,945.6
2023-03-26T03:01:16.019Z,945.6
2023-03-26T03:02:17.990Z,945.6
2023-03-26T03:03:20.247Z,945.6
2023-03-26T03:04:22.068Z,945.6
2023-03-26T03:05:23.996Z,945.7
2023-03-26T03:06:25.867Z,945.6
2023-03-26T03:07:27.709Z,945.7
2023-03-26T03:08:29.692Z,945.7
2023-03-26T03:09:31.517Z,945.7
2023-03-26T03:10:33.406Z,945.7
2023-03-26T03:11:35.320Z,945.7
2023-03-26T03:12:37.171Z,945.7
2023-03-26T03:13:39.154Z,945.7
2023-03-26T03:14:40.965Z,945.7
2023-03-26T03:15:42.915Z,945.7
2023-03-26T03:16:45.005Z,945.8
2023-03-26T03:17:46.965Z,945.8
2023-03-26T03:18:48.881Z,945.8
2023-03-26T03:19:50.726Z,945.8
2023-03-26T03:20:52.689Z,945.8
2023-03-26T03:21:54.545Z,945.8
2023-03-26T03:22:56.385Z,945.8
2023-03-26T03:24:01.026Z,945.9
2023-03-26T03:25:02.852Z,945.9
2023-03-26T03:26:04.804Z,945.9
2023-03-26T03:27:06.557Z,946
2023-03-26T03:28:08.402Z,945.9
2023-03-26T03:29:10.263Z,945.9
2023-03-26T03:30:12.096Z,945.9
2023-03-26T03:31:14.180Z,946
2023-03-26T03:32:16.016Z,946
2023-03-26T03:33:17.854Z,946
2023-03-26T03:34:19.579Z,946
2023-03-26T03:35:21.463Z,946
2023-03-26T03:36:23.419Z,946.1
2023-03-26T03:37:25.235Z,946
2023-03-26T03:38:27.113Z,946.1
2023-03-26T03:39:28.990Z,946.1
2023-03-26T03:40:30.916Z,946
2023-03-26T03:41:32.882Z,946
2023-03-26T03:42:34.617Z,946
2023-03-26T03:43:36.465Z,946
2023-03-26T03:44:38.304Z,946
2023-03-26T03:45:40.094Z,945.9
2023-03-26T03:46:42.082Z,945.9
2023-03-26T03:47:44.189Z,945.9
2023-03-26T03:48:46.028Z,945.9
2023-03-26T03:49:47.773Z,945.9
2023-03-26T03:50:49.615Z,945.9
2023-03-26T03:51:51.460Z,945.9
2023-03-26T03:52:53.231Z,945.9
2023-03-26T03:53:55.265Z,945.9
2023-03-26T03:54:57.148Z,945.9
2023-03-26T03:55:59.191Z,945.9
2023-03-26T03:57:01.041Z,946
2023-03-26T03:58:02.813Z,946
2023-03-26T03:59:04.637Z,945.9
2023-03-26T04:00:07.397Z,946
2023-03-26T04:01:09.249Z,946
2023-03-26T04:02:11.368Z,946
2023-03-26T04:03:13.556Z,946
2023-03-26T04:04:15.752Z,946.1
2023-03-26T04:05:17.685Z,946.1
2023-03-26T04:06:19.642Z,946.2
2023-03-26T04:07:21.685Z,946.2
2023-03-26T04:08:23.934Z,946.2
2023-03-26T04:09:25.795Z,946.2
2023-03-26T04:10:27.658Z,946.2
2023-03-26T04:11:29.479Z,946.2
2023-03-26T04:12:31.443Z,946.2
2023-03-26T04:13:33.395Z,946.2
2023-03-26T04:14:35.248Z,946.2
2023-03-26T04:15:37.103Z,946.3
2023-03-26T04:16:38.940Z,946.3
2023-03-26T04:17:40.903Z,946.3
2023-03-26T04:18:43.059Z,946.3
2023-03-26T04:19:44.905Z,946.4
2023-03-26T04:20:47.176Z,946.4
2023-03-26T04:21:49.034Z,946.4
2023-03-26T04:22:50.861Z,946.4
2023-03-26T04:23:52.816Z,946.5
2023-03-26T04:24:54.967Z,946.5
2023-03-26T04:25:57.408Z,946.6
2023-03-26T04:26:59.507Z,946.7
2023-03-26T04:28:01.444Z,946.7
2023-03-26T04:29:03.298Z,946.7
2023-03-26T04:30:05.181Z,946.7
2023-03-26T04:31:07.121Z,946.7
2023-03-26T04:32:08.945Z,946.7
2023-03-26T04:33:10.788Z,946.7
2023-03-26T04:34:12.542Z,946.7
2023-03-26T04:35:14.383Z,946.8
2023-03-26T04:36:16.320Z,946.8
2023-03-26T04:37:18.098Z,946.8
2023-03-26T04:38:19.946Z,946.8
2023-03-26T04:39:21.797Z,946.8
2023-03-26T04:40:23.644Z,946.8
2023-03-26T04:41:25.518Z,946.8
2023-03-26T04:42:27.449Z,946.8
2023-03-26T04:43:29.286Z,946.8
2023-03-26T04:44:31.138Z,946.9
2023-03-26T04:45:32.896Z,946.9
2023-03-26T04:46:34.855Z,946.9
2023-03-26T04:47:37.296Z,946.9
2023-03-26T04:48:39.366Z,946.9
2023-03-26T04:49:41.217Z,947
2023-03-26T04:50:43.169Z,947
2023-03-26T04:51:45.121Z,947
2023-03-26T04:52:46.979Z,947
2023-03-26T04:53:48.819Z,947
2023-03-26T04:54:50.773Z,947
2023-03-26T04:55:53.570Z,946.9
2023-03-26T04:56:55.945Z,946.9
2023-03-26T04:57:57.967Z,946.9
2023-03-26T04:58:59.712Z,947
2023-03-26T05:00:01.669Z,947
2023-03-26T05:01:11.218Z,947
2023-03-26T05:02:13.081Z,947
2023-03-26T05:03:14.869Z,947
2023-03-26T05:04:17.096Z,947
2023-03-26T05:05:19.213Z,946.9
2023-03-26T05:06:21.047Z,947
2023-03-26T05:07:22.907Z,946.9
2023-03-26T05:08:24.745Z,947
2023-03-26T05:09:26.706Z,947
2023-03-26T05:10:28.656Z,947
2023-03-26T05:11:30.629Z,947
2023-03-26T05:12:32.462Z,947
2023-03-26T05:13:34.286Z,947
2023-03-26T05:14:36.268Z,947
2023-03-26T05:15:38.119Z,947
2023-03-26T05:16:40.175Z,947.1
2023-03-26T05:17:42.448Z,947.1
2023-03-26T05:18:44.484Z,947.1
2023-03-26T05:19:46.221Z,947.1
2023-03-26T05:20:47.969Z,947.1
2023-03-26T05:21:49.930Z,947.1
2023-03-26T05:22:51.787Z,947.1
2023-03-26T05:23:53.624Z,947.1
2023-03-26T05:24:55.490Z,947.1
2023-03-26T05:25:57.323Z,947
2023-03-26T05:26:59.288Z,947
2023-03-26T05:28:01.151Z,947.1
2023-03-26T05:29:02.986Z,947.1
2023-03-26T05:30:05.044Z,947.1
2023-03-26T05:31:07.086Z,947.1
2023-03-26T05:32:08.943Z,947.1
2023-03-26T05:33:11.140Z,947.2
2023-03-26T05:34:13.160Z,947.1
2023-03-26T05:35:14.999Z,947.2
2023-03-26T05:36:16.857Z,947.2
2023-03-26T05:37:18.699Z,947.1
2023-03-26T05:38:20.560Z,947.1
2023-03-26T05:39:22.340Z,947.2
2023-03-26T05:40:24.145Z,947.2
2023-03-26T05:41:26.003Z,947.1
2023-03-26T05:42:27.856Z,947.2
2023-03-26T05:43:29.928Z,947.1
2023-03-26T05:44:31.861Z,947.1
2023-03-26T05:45:33.716Z,947.1
2023-03-26T05:46:35.685Z,947.1
2023-03-26T05:47:37.980Z,947.1
2023-03-26T05:48:40.076Z,947.1
2023-03-26T05:49:42.038Z,947.1
2023-03-26T05:50:43.888Z,947.2
2023-03-26T05:51:45.736Z,947.2
2023-03-26T05:52:47.477Z,947.2
2023-03-26T05:53:49.439Z,947.2
2023-03-26T05:54:51.277Z,947.2
2023-03-26T05:55:53.034Z,947.3
2023-03-26T05:56:55.103Z,947.2
2023-03-26T05:57:57.007Z,947.3
2023-03-26T05:58:58.915Z,947.3
2023-03-26T06:00:00.849Z,947.3
2023-03-26T06:01:02.698Z,947.3
2023-03-26T06:02:04.509Z,947.2
2023-03-26T06:03:06.935Z,947.2
2023-03-26T06:04:09.462Z,947.2
2023-03-26T06:05:11.522Z,947.2
2023-03-26T06:06:13.368Z,947.2
2023-03-26T06:07:15.322Z,947.1
2023-03-26T06:08:17.171Z,947.1
2023-03-26T06:09:18.971Z,947.1
2023-03-26T06:10:20.870Z,947.1
2023-03-26T06:11:22.728Z,947.2
2023-03-26T06:12:24.905Z,947.1
2023-03-26T06:13:27.249Z,947.1
2023-03-26T06:14:29.017Z,947.1
2023-03-26T06:15:30.880Z,947.2
2023-03-26T06:16:33.021Z,947.2
2023-03-26T06:17:35.178Z,947.2
2023-03-26T06:18:37.030Z,947.2
2023-03-26T06:19:38.952Z,947.1
2023-03-26T06:20:40.888Z,947.1
2023-03-26T06:21:42.760Z,947.1
2023-03-26T06:22:44.618Z,947.1
2023-03-26T06:23:46.442Z,947.2
2023-03-26T06:24:48.356Z,947.2
2023-03-26T06:25:50.157Z,947.2
2023-03-26T06:26:52.014Z,947.2
2023-03-26T06:27:53.956Z,947.2
2023-03-26T06:28:55.817Z,947.2
2023-03-26T06:29:57.703Z,947.2
2023-03-26T06:30:59.625Z,947.2
2023-03-26T06:32:20.683Z,947.2
2023-03-26T06:33:25.031Z,947.2
2023-03-26T06:34:26.986Z,947.2
2023-03-26T06:35:28.825Z,947.2
2023-03-26T06:36:30.673Z,947.2
2023-03-26T06:37:32.634Z,947.1
2023-03-26T06:38:34.383Z,947.2
2023-03-26T06:39:36.235Z,947.2
2023-03-26T06:40:38.068Z,947.2
2023-03-26T06:41:39.926Z,947.2
2023-03-26T06:43:11.307Z,947.2
2023-03-26T06:44:13.116Z,947.2
2023-03-26T06:45:14.994Z,947.2
2023-03-26T06:46:17.061Z,947.2
2023-03-26T06:47:19.076Z,947.2
2023-03-26T06:48:21.037Z,947.2
2023-03-26T06:49:22.878Z,947.3
2023-03-26T06:50:25.092Z,947.3
2023-03-26T06:51:27.005Z,947.3
2023-03-26T06:52:29.065Z,947.3
2023-03-26T06:53:31.096Z,947.3
2023-03-26T06:54:33.061Z,947.3
2023-03-26T06:55:34.888Z,947.3
2023-03-26T06:56:36.768Z,947.3
2023-03-26T06:57:38.602Z,947.4
2023-03-26T06:58:40.661Z,947.4
2023-03-26T06:59:42.515Z,947.4
2023-03-26T07:00:44.514Z,947.4
2023-03-26T07:01:47.231Z,947.4
2023-03-26T07:02:49.192Z,947.4
2023-03-26T07:03:51.318Z,947.4
2023-03-26T07:04:53.190Z,947.4
2023-03-26T07:05:55.041Z,947.4
2023-03-26T07:06:56.896Z,947.4
2023-03-26T07:07:58.764Z,947.4
2023-03-26T07:09:00.607Z,947.4
2023-03-26T07:10:02.440Z,947.5
2023-03-26T07:11:04.291Z,947.5
2023-03-26T07:12:06.266Z,947.5
2023-03-26T07:13:08.098Z,947.5
2023-03-26T07:14:09.941Z,947.5
2023-03-26T07:15:11.752Z,947.4
2023-03-26T07:16:13.789Z,947.4
2023-03-26T07:17:15.597Z,947.4
2023-03-26T07:18:17.450Z,947.4
2023-03-26T07:19:19.307Z,947.5
2023-03-26T07:20:21.260Z,947.4
2023-03-26T07:21:23.120Z,947.4
2023-03-26T07:22:24.957Z,947.4
2023-03-26T07:23:26.831Z,947.3
2023-03-26T07:24:29.070Z,947.3
2023-03-26T07:25:31.219Z,947.3
2023-03-26T07:26:33.078Z,947.3
2023-03-26T07:27:34.921Z,947.3
2023-03-26T07:28:36.974Z,947.3
2023-03-26T07:29:39.129Z,947.3
2023-03-26T07:30:40.990Z,947.3
2023-03-26T07:31:43.166Z,947.4
2023-03-26T07:32:45.136Z,947.3
2023-03-26T07:33:47.054Z,947.3
2023-03-26T07:34:48.905Z,947.3
2023-03-26T07:35:50.959Z,947.3
2023-03-26T07:36:52.900Z,947.2
2023-03-26T07:37:54.657Z,947.2
2023-03-26T07:38:56.510Z,947.3
2023-03-26T07:39:58.345Z,947.2
2023-03-26T07:41:00.317Z,947.2
2023-03-26T07:42:02.167Z,947.2
2023-03-26T07:43:03.977Z,947.3
2023-03-26T07:44:08.618Z,947.3
2023-03-26T07:45:10.377Z,947.2
2023-03-26T07:46:12.329Z,947.2
2023-03-26T07:47:14.194Z,947.2
2023-03-26T07:48:16.125Z,947.2
2023-03-26T07:49:18.171Z,947.2
2023-03-26T07:50:20.244Z,947.2
2023-03-26T07:51:22.187Z,947.2
2023-03-26T07:52:24.040Z,947.3
2023-03-26T07:53:25.889Z,947.3
2023-03-26T07:54:27.734Z,947.3
2023-03-26T07:55:29.577Z,947.3
2023-03-26T07:56:31.624Z,947.3
2023-03-26T07:57:33.708Z,947.3
2023-03-26T07:58:35.545Z,947.3
2023-03-26T07:59:37.390Z,947.3
2023-03-26T08:00:39.253Z,947.3
2023-03-26T08:01:41.466Z,947.3
2023-03-26T08:02:43.755Z,947.3
2023-03-26T08:03:46.190Z,947.3
2023-03-26T08:04:48.927Z,947.3
2023-03-26T08:05:51.042Z,947.2
2023-03-26T08:06:52.898Z,947.2
2023-03-26T08:07:54.754Z,947.2
2023-03-26T08:08:56.710Z,947.2
2023-03-26T08:09:58.652Z,947.2
2023-03-26T08:11:00.502Z,947.2
2023-03-26T08:12:02.250Z,947.2
2023-03-26T08:13:04.311Z,947.2
2023-03-26T08:14:06.160Z,947.2
2023-03-26T08:15:08.136Z,947.2
2023-03-26T08:16:10.102Z,947.2
2023-03-26T08:17:12.013Z,947.2
2023-03-26T08:18:13.900Z,947.2
2023-03-26T08:19:15.725Z,947.2
2023-03-26T08:20:17.567Z,947.2
2023-03-26T08:21:19.413Z,947.2
2023-03-26T08:22:21.261Z,947.2
2023-03-26T08:23:23.212Z,947.2
2023-03-26T08:24:25.180Z,947.3
2023-03-26T08:25:27.014Z,947.2
2023-03-26T08:26:28.866Z,947.2
2023-03-26T08:27:30.724Z,947.2
2023-03-26T08:28:32.572Z,947.2
2023-03-26T08:29:34.413Z,947.2
2023-03-26T08:30:36.263Z,947.2
2023-03-26T08:31:38.558Z,947.2
2023-03-26T08:32:40.828Z,947.2
2023-03-26T08:33:42.978Z,947.2
2023-03-26T08:34:44.912Z,947.2
2023-03-26T08:35:46.973Z,947.2
2023-03-26T08:36:49.023Z,947.2
2023-03-26T08:37:50.858Z,947.2
2023-03-26T08:38:53.349Z,947.2
2023-03-26T08:39:55.370Z,947.2
2023-03-26T08:40:58.052Z,947.2
2023-03-26T08:41:59.891Z,947.2
2023-03-26T08:43:01.750Z,947.2
2023-03-26T08:44:03.489Z,947.2
2023-03-26T08:45:05.348Z,947.2
2023-03-26T08:46:07.438Z,947.2
2023-03-26T08:47:09.251Z,947.2
2023-03-26T08:48:11.097Z,947.2
2023-03-26T08:49:12.878Z,947.1
2023-03-26T08:50:14.697Z,947.2
2023-03-26T08:51:16.784Z,947.2
2023-03-26T08:52:18.710Z,947.2
2023-03-26T08:53:20.873Z,947.2
2023-03-26T08:54:22.713Z,947.2
2023-03-26T08:55:24.562Z,947.2
2023-03-26T08:56:26.421Z,947.2
2023-03-26T08:57:28.375Z,947.2
2023-03-26T08:58:30.231Z,947.2
2023-03-26T08:59:32.071Z,947.2
2023-03-26T09:00:34.025Z,947.2
2023-03-26T09:01:36.011Z,947.1
2023-03-26T09:02:38.095Z,947.2
2023-03-26T09:03:40.116Z,947.2
2023-03-26T09:04:42.073Z,947.2
2023-03-26T09:05:43.988Z,947.1
2023-03-26T09:06:45.766Z,947.1
2023-03-26T09:07:47.591Z,947.1
2023-03-26T09:08:55.078Z,947.1
2023-03-26T09:09:56.921Z,947.1
2023-03-26T09:10:58.873Z,947.1
2023-03-26T09:12:00.719Z,947.1
2023-03-26T09:13:02.571Z,947.2
2023-03-26T09:14:04.415Z,947.2
2023-03-26T09:15:06.275Z,947.2
2023-03-26T09:16:08.337Z,947.2
2023-03-26T09:17:10.283Z,947.2
2023-03-26T09:18:12.268Z,947.2
2023-03-26T09:19:14.305Z,947.2
2023-03-26T09:20:16.258Z,947.2
2023-03-26T09:21:18.188Z,947.1
2023-03-26T09:22:20.156Z,947.2
2023-03-26T09:23:21.988Z,947.1
2023-03-26T09:24:23.846Z,947.1
2023-03-26T09:25:25.809Z,947.1
2023-03-26T09:26:27.648Z,947.1
2023-03-26T09:27:29.497Z,947.1
2023-03-26T09:28:31.354Z,947.1
2023-03-26T09:29:33.717Z,947.1
2023-03-26T09:30:35.560Z,947
2023-03-26T09:31:37.636Z,947.1
2023-03-26T09:32:39.897Z,947
2023-03-26T09:33:41.730Z,947
2023-03-26T09:34:43.796Z,947
2023-03-26T09:35:45.863Z,947
2023-03-26T09:36:47.781Z,947
2023-03-26T09:37:58.886Z,947
2023-03-26T09:39:00.800Z,947
2023-03-26T09:40:02.764Z,946.9
2023-03-26T09:41:04.605Z,947
2023-03-26T09:42:06.458Z,947
2023-03-26T09:43:08.419Z,947
2023-03-26T09:44:10.257Z,947
2023-03-26T09:45:12.207Z,946.9
2023-03-26T09:46:14.210Z,947
2023-03-26T09:47:16.123Z,946.9
2023-03-26T09:48:18.079Z,946.9
2023-03-26T09:49:20.325Z,946.9
2023-03-26T09:50:23.063Z,946.9
2023-03-26T09:51:28.047Z,946.9
2023-03-26T09:52:29.886Z,946.9
2023-03-26T09:53:31.657Z,946.9
2023-03-26T09:54:33.472Z,946.8
2023-03-26T09:55:35.320Z,946.8
2023-03-26T09:56:40.062Z,946.8
2023-03-26T09:57:42.219Z,946.9
2023-03-26T09:58:44.143Z,946.8
2023-03-26T09:59:46.102Z,946.8
2023-03-26T10:00:48.125Z,946.8
2023-03-26T10:01:49.997Z,946.8
2023-03-26T10:02:51.993Z,946.8
2023-03-26T10:03:53.922Z,946.8
2023-03-26T10:04:56.426Z,946.7
2023-03-26T10:05:58.332Z,946.7
2023-03-26T10:07:00.329Z,946.7
2023-03-26T10:08:02.357Z,946.6
2023-03-26T10:09:04.292Z,946.6
2023-03-26T10:10:06.149Z,946.6
2023-03-26T10:11:07.983Z,946.7
2023-03-26T10:12:09.943Z,946.6
2023-03-26T10:13:15.481Z,946.6
2023-03-26T10:14:17.328Z,946.6
2023-03-26T10:15:19.188Z,946.6
2023-03-26T10:16:21.285Z,946.5
2023-03-26T10:17:23.318Z,946.5
2023-03-26T10:18:30.327Z,946.5
2023-03-26T10:19:32.212Z,946.5
2023-03-26T10:20:34.170Z,946.5
2023-03-26T10:21:36.015Z,946.4
2023-03-26T10:22:37.990Z,946.4
2023-03-26T10:23:39.917Z,946.4
2023-03-26T10:24:41.771Z,946.4
2023-03-26T10:25:43.514Z,946.4
2023-03-26T10:27:11.281Z,946.3
2023-03-26T10:28:13.210Z,946.3
2023-03-26T10:29:15.076Z,946.3
2023-03-26T10:30:16.926Z,946.3
2023-03-26T10:31:19.015Z,946.2
2023-03-26T10:32:20.922Z,946.2
2023-03-26T10:33:25.459Z,946.2
2023-03-26T10:34:30.048Z,946.2
2023-03-26T10:35:32.136Z,946.1
2023-03-26T10:36:34.056Z,946.1
2023-03-26T10:37:35.918Z,946.1
2023-03-26T10:38:37.976Z,946.1
2023-03-26T10:39:43.812Z,946.1
2023-03-26T10:40:45.667Z,946.1
2023-03-26T10:41:47.508Z,946.1
2023-03-26T10:42:49.357Z,946.1
2023-03-26T10:44:09.274Z,946
2023-03-26T10:45:11.181Z,946
2023-03-26T10:46:13.259Z,946
2023-03-26T10:47:15.091Z,946
2023-03-26T10:48:16.938Z,946
2023-03-26T10:49:18.892Z,946
2023-03-26T10:50:24.221Z,946
2023-03-26T10:51:26.010Z,946
2023-03-26T10:52:27.828Z,946
2023-03-26T10:53:29.677Z,946
2023-03-26T10:54:31.678Z,946
2023-03-26T10:55:33.516Z,945.9
2023-03-26T10:56:35.605Z,945.9
2023-03-26T10:57:37.473Z,945.9
2023-03-26T10:58:50.812Z,945.9
2023-03-26T10:59:52.726Z,945.9
2023-03-26T11:00:55.064Z,945.9
2023-03-26T11:01:57.426Z,945.9
2023-03-26T11:02:59.555Z,945.9
2023-03-26T11:04:01.486Z,945.8
2023-03-26T11:05:03.565Z,945.8
2023-03-26T11:06:05.388Z,945.9
2023-03-26T11:07:09.192Z,945.8
2023-03-26T11:08:11.144Z,945.8
2023-03-26T11:09:12.885Z,945.8
2023-03-26T11:10:14.878Z,945.8
2023-03-26T11:11:16.590Z,945.8
2023-03-26T11:12:28.820Z,945.8
2023-03-26T11:13:30.733Z,945.8
2023-03-26T11:14:35.868Z,945.8
2023-03-26T11:15:37.978Z,945.8
2023-03-26T11:16:39.867Z,945.8
2023-03-26T11:17:42.379Z,945.7
2023-03-26T11:18:44.282Z,945.8
2023-03-26T11:19:46.242Z,945.7
2023-03-26T11:20:48.098Z,945.8
2023-03-26T11:21:49.945Z,945.8
2023-03-26T11:22:51.799Z,945.7
2023-03-26T11:24:06.747Z,945.7
2023-03-26T11:25:08.597Z,945.7
2023-03-26T11:26:10.475Z,945.6
2023-03-26T11:27:19.755Z,945.6
2023-03-26T11:28:26.662Z,945.6
2023-03-26T11:34:37.330Z,945.6
2023-03-26T11:35:42.202Z,945.6
2023-03-26T11:36:44.200Z,945.5
2023-03-26T11:37:45.946Z,945.6
2023-03-26T11:38:47.906Z,945.5
2023-03-26T11:39:49.757Z,945.6
2023-03-26T11:40:51.605Z,945.5
2023-03-26T11:41:53.681Z,945.5
2023-03-26T11:42:55.529Z,945.6
2023-03-26T11:43:57.398Z,945.6
2023-03-26T11:44:59.343Z,945.5
2023-03-26T11:46:01.194Z,945.5
2023-03-26T11:47:03.225Z,945.5
2023-03-26T11:48:05.184Z,945.5
2023-03-26T11:49:07.119Z,945.5
2023-03-26T11:50:08.968Z,945.4
2023-03-26T11:51:10.826Z,945.3
2023-03-26T11:52:12.775Z,945.3
2023-03-26T11:53:14.643Z,945.3
2023-03-26T11:54:16.486Z,945.2
2023-03-26T11:55:18.436Z,945.3
2023-03-26T11:56:20.469Z,945.2
2023-03-26T11:57:22.424Z,945.2
2023-03-26T11:58:24.296Z,945.2
2023-03-26T11:59:26.129Z,945.1
2023-03-26T12:00:28.189Z,945
2023-03-26T12:01:30.059Z,945
2023-03-26T12:02:32.254Z,945
2023-03-26T12:03:34.764Z,944.9
2023-03-26T12:04:36.609Z,944.9
2023-03-26T12:05:38.564Z,944.9
2023-03-26T12:06:40.413Z,944.9
2023-03-26T12:07:42.479Z,944.9
2023-03-26T12:08:44.329Z,944.9
2023-03-26T12:09:46.167Z,944.9
2023-03-26T12:10:48.021Z,944.9
2023-03-26T12:11:49.843Z,944.9
2023-03-26T12:12:51.848Z,944.9
2023-03-26T12:13:53.651Z,944.9
2023-03-26T12:14:55.526Z,944.9
2023-03-26T12:15:57.534Z,944.8
2023-03-26T12:16:59.753Z,944.8
2023-03-26T12:18:01.834Z,944.8
2023-03-26T12:19:03.732Z,944.8
2023-03-26T12:20:05.686Z,944.8
2023-03-26T12:21:09.591Z,944.8
2023-03-26T12:22:11.532Z,944.8
2023-03-26T12:23:13.390Z,944.8
2023-03-26T12:24:15.243Z,944.7
2023-03-26T12:25:17.082Z,944.7
2023-03-26T12:26:18.920Z,944.7
2023-03-26T12:27:20.788Z,944.6
2023-03-26T12:28:22.898Z,944.6
2023-03-26T12:29:24.797Z,944.6
2023-03-26T12:30:26.660Z,944.6
2023-03-26T12:31:28.720Z,944.5
2023-03-26T12:32:47.288Z,944.6
2023-03-26T12:33:49.198Z,944.6
2023-03-26T12:34:51.149Z,944.6
2023-03-26T12:35:53.043Z,944.6
2023-03-26T12:36:55.044Z,944.5
2023-03-26T12:37:56.881Z,944.5
2023-03-26T12:40:16.129Z,944.5
2023-03-26T12:44:58.676Z,944.4
2023-03-26T12:48:04.510Z,944.3
2023-03-26T12:49:07.068Z,944.3
2023-03-26T12:50:09.347Z,944.3
2023-03-26T12:51:11.240Z,944.2
2023-03-26T12:52:13.081Z,944.2
2023-03-26T12:53:15.030Z,944.2
2023-03-26T12:54:16.887Z,944.1
2023-03-26T12:55:18.708Z,944.2
2023-03-26T12:56:20.583Z,944.2
2023-03-26T12:57:22.710Z,944.2
2023-03-26T12:58:24.687Z,944.2
2023-03-26T12:59:26.434Z,944.2
2023-03-26T13:00:28.314Z,944.2
2023-03-26T13:01:30.366Z,944.1
2023-03-26T13:02:32.749Z,944.1
2023-03-26T13:03:34.904Z,944.1
2023-03-26T13:04:36.816Z,944
2023-03-26T13:05:38.659Z,944.1
2023-03-26T13:07:02.847Z,944
2023-03-26T13:08:04.801Z,944.1
2023-03-26T13:09:06.642Z,944.1
2023-03-26T13:10:08.502Z,944.1
2023-03-26T13:11:10.341Z,944.1
2023-03-26T13:12:12.205Z,944.1
2023-03-26T13:13:14.141Z,944.1
2023-03-26T13:14:15.995Z,944.1
2023-03-26T13:15:17.961Z,944
2023-03-26T13:16:20.029Z,944
2023-03-26T13:17:22.184Z,944
2023-03-26T13:18:24.319Z,944
2023-03-26T13:19:26.172Z,944
2023-03-26T13:20:28.020Z,944
2023-03-26T13:21:29.878Z,943.9
2023-03-26T13:22:31.812Z,943.9
2023-03-26T13:23:33.665Z,943.9
2023-03-26T13:24:35.425Z,944
2023-03-26T13:25:37.265Z,944
2023-03-26T13:26:39.125Z,944
2023-03-26T13:27:40.961Z,943.9
2023-03-26T13:28:42.812Z,943.9
2023-03-26T13:29:44.669Z,944
2023-03-26T13:30:46.531Z,943.9
2023-03-26T13:31:48.383Z,944
2023-03-26T13:32:50.346Z,944
2023-03-26T13:33:52.371Z,944
2023-03-26T13:34:54.218Z,944
2023-03-26T13:36:24.132Z,943.9
2023-03-26T13:37:26.899Z,943.9
2023-03-26T13:38:28.862Z,943.9
2023-03-26T13:39:30.700Z,943.9
2023-03-26T13:40:32.515Z,943.9
2023-03-26T13:41:34.423Z,943.9